Flight Track Log - Related Links

Times and Time Zones

All times are in EDT time to prevent confusion due to time zone crossing. See the UAL4236 flight status page for this flight to view local times or setup timezone preferences in your user account.

Time Position Orientation Groundspeed Altitude Reporting Facility
EDT Latitude Longitude Course Direction KTS MPH feet Rate Location/Type
Wed 10:25:04 AM 29.9761 -95.3394 276° West 165 190 800  Level Houston Center
Wed 10:26:05 AM 29.9650 -95.4011 258° West 224 258 2,700 2,213 Climbing Houston Center
Wed 10:27:06 AM 29.9614 -95.4786 267° West 239 275 5,300 2,112 Climbing Houston Center
Wed 10:28:10 AM 29.9764 -95.5511 283° West 243 280 7,100 2,186 Climbing Houston Center
Wed 10:29:00 AM 30.0397 -95.8763 276° West  Level FlightAware Approximate
Wed 10:29:15 AM 29.9936 -95.6508 281° West 267 307 10,000  Level Houston Center
Wed 10:30:00 AM 30.0488 -95.9855 276° West  Level FlightAware Approximate
Wed 10:30:14 AM 30.0086 -95.7208 284° West 275 316 11,200  Level Houston Center
Wed 10:31:16 AM 30.0300 -95.8392 282° West 318 366 12,900 1,597 Climbing Houston Center
Wed 10:32:18 AM 30.0483 -95.9397 282° West 321 369 14,500 1,500 Climbing Houston Center
Wed 10:33:20 AM 30.0681 -96.0486 282° West 329 379 16,000 1,306 Climbing Houston Center
Wed 10:34:22 AM 30.0844 -96.1542 280° West 335 386 17,200 1,161 Climbing Houston Center
Wed 10:35:24 AM 30.1017 -96.2633 280° West 345 397 18,400 1,306 Climbing Houston Center
Wed 10:36:26 AM 30.1186 -96.3714 280° West 346 398 19,900 1,548 Climbing Houston Center
Wed 10:37:28 AM 30.1350 -96.4836 280° West 344 396 21,600 1,742 Climbing Houston Center
Wed 10:38:30 AM 30.1547 -96.6117 280° West 344 396 23,500 1,742 Climbing Houston Center
Wed 10:39:32 AM 30.1711 -96.7186 280° West 337 388 25,200 1,597 Climbing Houston Center
Wed 10:40:34 AM 30.1864 -96.8231 280° West 328 377 26,800 1,584 Climbing Houston Center
Wed 10:41:37 AM 30.2017 -96.9258 280° West 322 371 28,500 1,584 Climbing Houston Center
Wed 10:42:39 AM 30.2167 -97.0247 280° West 310 357 30,100 1,597 Climbing Houston Center
Wed 10:43:41 AM 30.2303 -97.1214 279° West 303 349 31,800 919 Climbing Houston Center
Wed 10:44:43 AM 30.2456 -97.2219 280° West 310 357 32,000 97 Climbing Houston Center
Wed 10:45:45 AM 30.2617 -97.3342 279° West 340 391 32,000  Level Houston Center
Wed 10:46:46 AM 30.2786 -97.4506 280° West 358 412 32,000 98 Level Houston Center
Wed 10:47:48 AM 30.2953 -97.5733 279° West 376 433 32,200  Climbing Houston Center
Wed 10:48:50 AM 30.3167 -97.7161 280° West 384 442 32,000 -97 Descending Houston Center
Wed 10:49:52 AM 30.3350 -97.8406 280° West 387 445 32,000  Level Houston Center
Wed 10:50:54 AM 30.3525 -97.9661 279° West 387 445 32,000  Level Houston Center
Wed 10:51:56 AM 30.3697 -98.0914 279° West 391 450 32,000  Level Houston Center
Wed 10:52:58 AM 30.3875 -98.2178 279° West 393 452 32,000  Level Houston Center
Wed 10:54:00 AM 30.4044 -98.3444 279° West 394 453 32,000  Level Houston Center
Wed 10:55:02 AM 30.4228 -98.4717 280° West 396 456 32,000  Level Houston Center
Wed 10:56:04 AM 30.4392 -98.5978 279° West 392 451 32,000  Level Houston Center
Wed 10:57:06 AM 30.4581 -98.7444 279° West 391 450 32,000  Level Houston Center
Wed 10:58:08 AM 30.4761 -98.8714 279° West 395 455 32,000  Level Houston Center
Wed 10:59:10 AM 30.4939 -98.9972 279° West 391 450 32,000  Level Houston Center
Wed 11:00:12 AM 30.5097 -99.1242 278° West 393 452 32,000 -48 Level Houston Center
Wed 11:01:14 AM 30.5258 -99.2428 279° West 396 456 31,900  Descending Houston Center
Wed 11:02:16 AM 30.5464 -99.3917 279° West 395 455 32,000 48 Climbing Houston Center
Wed 11:03:18 AM 30.5606 -99.5167 278° West 394 453 32,000  Level Houston Center
Wed 11:04:19 AM 30.5775 -99.6419 279° West 395 455 32,000  Level Houston Center
Wed 11:05:21 AM 30.5928 -99.7672 278° West 396 456 32,000  Level Houston Center
Wed 11:06:23 AM 30.6128 -99.8908 281° West 394 453 32,000  Level Houston Center
Wed 11:07:25 AM 30.6389 -100.0139 284° West 395 455 32,000  Level Houston Center
Wed 11:08:27 AM 30.6689 -100.1628 283° West 397 457 32,000  Level Houston Center
Wed 11:09:29 AM 30.6922 -100.2847 283° West 402 463 32,000  Level Houston Center
Wed 11:10:31 AM 30.7169 -100.4078 283° West 399 459 32,000  Level Houston Center
Wed 11:11:33 AM 30.7422 -100.5303 284° West 393 452 32,000  Level Houston Center
Wed 11:12:35 AM 30.7669 -100.6539 283° West 395 455 32,000  Level Houston Center
Wed 11:13:37 AM 30.7961 -100.8022 283° West 395 455 32,000 -48 Level Houston Center
Wed 11:14:39 AM 30.8183 -100.9267 282° West 395 455 31,900  Descending Houston Center
Wed 11:15:41 AM 30.8431 -101.0519 283° West 400 460 32,000 48 Climbing Houston Center
Wed 11:16:43 AM 30.8675 -101.1733 283° West 393 452 32,000  Level Houston Center
Wed 11:17:45 AM 30.8936 -101.2983 284° West 394 453 32,000  Level Houston Center
Wed 11:18:47 AM 30.9161 -101.4200 282° West 391 450 32,000  Level Houston Center
Wed 11:19:49 AM 30.9394 -101.5525 282° West 396 456 32,000  Level Houston Center
Wed 11:20:51 AM 30.9686 -101.7014 283° West 395 455 32,000  Level Houston Center
Wed 11:21:53 AM 30.9911 -101.8261 282° West 393 452 32,000  Level Houston Center
Wed 11:22:55 AM 31.0150 -101.9511 283° West 395 455 32,000  Level Houston Center
Wed 11:23:57 AM 31.0381 -102.0764 282° West 395 455 32,000  Level Houston Center
Wed 11:24:59 AM 31.0628 -102.2153 282° West 395 455 32,000  Level Albuquerque Center
Wed 11:26:01 AM 31.0853 -102.3400 282° West 394 453 32,000  Level Albuquerque Center
Wed 11:27:03 AM 31.1089 -102.4642 283° West 393 452 32,000  Level Albuquerque Center
Wed 11:28:05 AM 31.1289 -102.5831 281° West 392 451 32,000  Level Albuquerque Center
Wed 11:29:07 AM 31.1558 -102.7325 282° West 391 450 32,000  Level Albuquerque Center
Wed 11:30:09 AM 31.1794 -102.8581 282° West 394 453 32,000  Level Albuquerque Center
Wed 11:31:11 AM 31.2017 -102.9839 282° West 395 455 32,000  Level Albuquerque Center
Wed 11:32:13 AM 31.2244 -103.1097 282° West 396 456 32,000  Level Albuquerque Center
Wed 11:33:15 AM 31.2458 -103.2347 281° West 394 453 32,000  Level Albuquerque Center
Wed 11:34:17 AM 31.2669 -103.3603 281° West 395 455 32,000  Level Albuquerque Center
Wed 11:35:19 AM 31.2897 -103.4861 282° West 396 456 32,000  Level Albuquerque Center
Wed 11:36:21 AM 31.3147 -103.6372 281° West 396 456 32,000  Level Albuquerque Center
Wed 11:37:23 AM 31.3378 -103.7631 282° West 396 456 32,000 -97 Level Albuquerque Center
Wed 11:38:25 AM 31.3583 -103.8839 281° West 398 458 31,800 -629 Descending Albuquerque Center
Wed 11:39:27 AM 31.3797 -104.0081 281° West 395 455 30,700 -1,440 Descending Albuquerque Center
Wed 11:40:30 AM 31.3983 -104.1281 280° West 383 441 28,800 -2,016 Descending Albuquerque Center
Wed 11:41:32 AM 31.4242 -104.2767 282° West 388 447 26,500 -2,081 Descending Albuquerque Center
Wed 11:42:34 AM 31.4447 -104.4019 281° West 393 452 24,500 -1,887 Descending Albuquerque Center
Wed 11:43:36 AM 31.4619 -104.5283 279° West 396 456 22,600 -1,597 Descending Albuquerque Center
Wed 11:44:38 AM 31.4733 -104.6519 276° West 389 448 21,200 -1,161 Descending Albuquerque Center
Wed 11:45:40 AM 31.4875 -104.7758 278° West 386 444 20,200 -1,016 Descending Albuquerque Center
Wed 11:46:42 AM 31.5025 -104.9258 277° West 389 448 19,100 -1,016 Descending Albuquerque Center
Wed 11:47:44 AM 31.5150 -105.0489 277° West 386 444 18,100 -823 Descending Albuquerque Center
Wed 11:48:46 AM 31.5281 -105.1719 277° West 385 443 17,400 -823 Descending Albuquerque Center
Wed 11:49:48 AM 31.5392 -105.2922 276° West 376 433 16,400 -991 Descending Albuquerque Center
Wed 11:50:41 AM 31.5494 -105.4078 276° West 346 398 15,500 -1,000 Descending Albuquerque Center
Wed 11:51:36 AM 31.5581 -105.5103 276° West 346 398 14,600 -1,014 Descending Albuquerque Center
Wed 11:51:52 AM 31.5633 -105.5383 282° West 349 402 14,300 -1,000 Descending Albuquerque Center
Wed 11:52:36 AM 31.5706 -105.6219 276° West 348 400 13,600 -968 Descending Albuquerque Center
Wed 11:52:54 AM 31.5733 -105.6514 276° West 351 404 13,300 -982 Descending Albuquerque Center
Wed 11:53:31 AM 31.5800 -105.7294 276° West 352 405 12,700 -968 Descending Albuquerque Center
Wed 11:53:56 AM 31.5850 -105.7642 280° West 351 404 12,300 -897 Descending Albuquerque Center
Wed 11:54:58 AM 31.6239 -105.8711 293° West 358 412 11,400 -919 Descending Albuquerque Center
Wed 11:56:00 AM 31.6686 -105.9611 300° West 320 368 10,400 -1,200 Descending Albuquerque Center
Wed 11:56:33 AM 31.6944 -106.0125 301° West 269 310 9,500 -1,452 Descending Albuquerque Center
Wed 11:57:02 AM 31.7075 -106.0375 302° West 276 318 8,900 -1,075 Descending Albuquerque Center
Wed 11:57:40 AM 31.7528 -106.0853 318° Northwest 262 302 8,300 -871 Descending Albuquerque Center
Wed 11:58:04 AM 31.7750 -106.1047 323° Northwest 271 312 8,000 -300 Descending Albuquerque Center
Wed 11:58:40 AM 31.8117 -106.1381 322° Northwest 271 312 8,000  Level Albuquerque Center
Wed 11:59:06 AM 31.8314 -106.1567 321° Northwest 258 297 8,000  Level Albuquerque Center
Wed 11:59:41 AM 31.8633 -106.1875 321° Northwest 232 267 8,000  Level Albuquerque Center
Wed 12:00:08 PM 31.8822 -106.2044 323° Northwest 237 273 8,000  Level Albuquerque Center

Login

Don't have an account? Register now (free) for customized features, flight alerts, and more!